createdAt,value
2019-02-14T00:01:20.264Z,11.57
2019-02-14T00:03:50.775Z,12.23
2019-02-14T00:06:21.132Z,11.97
2019-02-14T00:08:49.544Z,12.97
2019-02-14T00:11:21.599Z,10.83
2019-02-14T00:13:50.066Z,10.80
2019-02-14T00:16:22.254Z,10.47
2019-02-14T00:18:50.752Z,12.47
2019-02-14T00:21:19.756Z,11.80
2019-02-14T00:23:48.572Z,11.87
2019-02-14T00:26:25.600Z,11.37
2019-02-14T00:28:56.514Z,10.87
2019-02-14T00:31:32.118Z,10.80
2019-02-14T00:34:01.805Z,11.80
2019-02-14T00:36:32.004Z,10.80
2019-02-14T00:39:02.058Z,11.23
2019-02-14T00:41:32.002Z,11.50
2019-02-14T00:44:01.446Z,11.80
2019-02-14T00:46:31.002Z,10.90
2019-02-14T00:49:00.516Z,11.20
2019-02-14T00:51:30.117Z,10.83
2019-02-14T00:53:58.484Z,11.30
2019-02-14T00:56:27.164Z,10.33
2019-02-14T00:58:56.151Z,11.00
2019-02-14T01:01:31.486Z,11.37
2019-02-14T01:03:59.822Z,10.80
2019-02-14T01:06:37.323Z,11.23
2019-02-14T01:09:09.001Z,12.63
2019-02-14T01:11:37.333Z,11.30
2019-02-14T01:14:05.783Z,12.37
2019-02-14T01:16:34.256Z,11.20
2019-02-14T01:19:04.178Z,11.70
2019-02-14T01:21:32.970Z,11.90
2019-02-14T01:24:01.339Z,11.60
2019-02-14T01:26:31.154Z,12.07
2019-02-14T01:28:59.948Z,10.57
2019-02-14T01:31:28.323Z,10.37
2019-02-14T01:37:29.975Z,10.40
2019-02-14T01:40:00.894Z,10.43
2019-02-14T01:42:31.686Z,10.80
2019-02-14T01:45:02.365Z,10.43
2019-02-14T01:47:31.342Z,10.13
2019-02-14T01:49:59.736Z,11.10
2019-02-14T01:52:28.170Z,10.67
2019-02-14T01:54:57.797Z,10.40
2019-02-14T01:57:27.471Z,11.50
2019-02-14T01:59:55.863Z,10.20
2019-02-14T02:02:36.065Z,10.07
2019-02-14T02:05:08.185Z,10.20
2019-02-14T02:07:38.216Z,10.90
2019-02-14T02:10:11.269Z,10.60
2019-02-14T02:12:44.701Z,10.30
2019-02-14T02:15:25.773Z,9.83
2019-02-14T02:17:56.320Z,9.87
2019-02-14T02:20:33.249Z,11.10
2019-02-14T02:22:59.265Z,10.30
2019-02-14T02:25:33.619Z,10.57
2019-02-14T02:28:06.771Z,10.97
2019-02-14T02:30:35.568Z,10.03
2019-02-14T02:33:04.635Z,10.13
2019-02-14T02:35:33.032Z,10.30
2019-02-14T02:38:03.975Z,10.43
2019-02-14T02:40:38.864Z,10.23
2019-02-14T02:43:07.261Z,10.67
2019-02-14T02:45:38.810Z,9.70
2019-02-14T02:48:07.237Z,10.23
2019-02-14T02:50:38.165Z,10.37
2019-02-14T02:53:07.590Z,10.20
2019-02-14T02:55:37.561Z,10.07
2019-02-14T02:58:05.943Z,10.83
2019-02-14T03:00:34.322Z,10.67
2019-02-14T03:03:04.269Z,10.23
2019-02-14T03:05:32.632Z,10.40
2019-02-14T03:08:03.956Z,10.53
2019-02-14T03:10:35.991Z,10.73
2019-02-14T03:13:05.992Z,11.00
2019-02-14T03:15:35.978Z,10.23
2019-02-14T03:18:05.640Z,10.80
2019-02-14T03:20:34.013Z,10.80
2019-02-14T03:23:03.739Z,10.33
2019-02-14T03:25:32.131Z,10.60
2019-02-14T03:28:00.839Z,10.50
2019-02-14T03:30:29.532Z,10.67
2019-02-14T03:32:59.637Z,10.83
2019-02-14T03:35:29.690Z,10.20
2019-02-14T03:37:59.299Z,10.73
2019-02-14T03:40:27.673Z,11.07
2019-02-14T03:42:57.252Z,10.60
2019-02-14T03:45:25.746Z,11.07
2019-02-14T03:48:14.836Z,10.00
2019-02-14T03:50:44.549Z,10.27
2019-02-14T03:53:15.147Z,10.43
2019-02-14T03:55:44.138Z,10.37
2019-02-14T03:58:16.066Z,9.67
2019-02-14T04:00:44.428Z,9.37
2019-02-14T04:03:13.855Z,9.87
2019-02-14T04:05:42.317Z,9.60
2019-02-14T04:08:10.717Z,8.70
2019-02-14T04:10:43.075Z,9.23
2019-02-14T04:13:13.875Z,8.70
2019-02-14T04:15:44.082Z,8.27
2019-02-14T04:18:14.758Z,8.03
2019-02-14T04:20:43.475Z,8.20
2019-02-14T04:23:15.763Z,7.90
2019-02-14T04:25:44.171Z,7.90
2019-02-14T04:28:13.523Z,8.07
2019-02-14T04:30:43.645Z,7.50
2019-02-14T04:33:12.007Z,7.93
2019-02-14T04:35:40.441Z,7.90
2019-02-14T04:38:11.279Z,8.57
2019-02-14T04:40:42.351Z,7.60
2019-02-14T04:43:14.357Z,8.40
2019-02-14T04:45:45.191Z,7.87
2019-02-14T04:48:17.427Z,7.93
2019-02-14T04:50:45.866Z,7.90
2019-02-14T04:53:15.898Z,8.67
2019-02-14T04:55:44.269Z,8.57
2019-02-14T04:58:31.487Z,8.00
2019-02-14T05:01:01.178Z,8.33
2019-02-14T05:03:33.005Z,8.10
2019-02-14T05:06:05.516Z,8.13
2019-02-14T05:08:37.308Z,9.17
2019-02-14T05:11:10.352Z,8.50
2019-02-14T05:13:38.716Z,8.50
2019-02-14T05:16:10.445Z,8.80
2019-02-14T05:18:40.536Z,9.40
2019-02-14T05:21:14.025Z,8.73
2019-02-14T05:23:45.893Z,9.73
2019-02-14T05:26:16.954Z,8.90
2019-02-14T05:28:45.677Z,8.27
2019-02-14T05:31:14.194Z,7.67
2019-02-14T05:33:42.610Z,8.67
2019-02-14T05:36:12.622Z,8.40
2019-02-14T05:38:43.189Z,8.97
2019-02-14T05:41:11.556Z,9.63
2019-02-14T05:43:43.016Z,9.17
2019-02-14T05:46:14.284Z,10.25
2019-02-14T05:48:44.183Z,9.47
2019-02-14T05:51:12.567Z,9.70
2019-02-14T05:53:44.678Z,9.37
2019-02-14T05:56:12.756Z,8.23
2019-02-14T05:58:42.258Z,10.00
2019-02-14T06:01:23.778Z,9.33
2019-02-14T06:03:56.909Z,9.27
2019-02-14T06:06:31.228Z,10.80
2019-02-14T06:08:59.612Z,8.90
2019-02-14T06:11:27.995Z,10.78
2019-02-14T06:13:58.312Z,9.20
2019-02-14T06:16:26.706Z,9.07
2019-02-14T06:18:58.340Z,9.13
2019-02-14T06:21:26.804Z,9.10
2019-02-14T06:23:55.611Z,9.30
2019-02-14T06:26:25.368Z,8.77
2019-02-14T06:28:54.986Z,8.90
2019-02-14T06:31:23.279Z,8.13
2019-02-14T06:33:51.645Z,9.40
2019-02-14T06:36:20.984Z,8.67
2019-02-14T06:38:49.352Z,9.13
2019-02-14T06:41:19.191Z,9.10
2019-02-14T06:43:50.255Z,9.80
2019-02-14T06:46:19.118Z,9.10
2019-02-14T06:48:59.272Z,8.53
2019-02-14T06:51:23.307Z,9.00
2019-02-14T06:53:51.725Z,8.90
2019-02-14T06:56:20.121Z,9.53
2019-02-14T06:58:48.537Z,9.67
2019-02-14T07:01:16.924Z,8.80
2019-02-14T07:03:45.904Z,9.30
2019-02-14T07:06:14.262Z,10.13
2019-02-14T07:08:46.486Z,9.53
2019-02-14T07:11:14.832Z,10.23
2019-02-14T07:13:43.354Z,8.97
2019-02-14T07:16:11.752Z,9.33
2019-02-14T07:18:40.174Z,8.80
2019-02-14T07:21:08.544Z,9.93
2019-02-14T07:23:41.384Z,8.60
2019-02-14T07:26:09.780Z,8.70
2019-02-14T07:28:43.983Z,9.53
2019-02-14T07:31:12.439Z,9.07
2019-02-14T07:33:42.783Z,9.77
2019-02-14T07:36:11.156Z,9.63
2019-02-14T07:38:41.215Z,9.23
2019-02-14T07:41:09.585Z,8.37
2019-02-14T07:43:39.406Z,9.40
2019-02-14T07:46:07.818Z,9.23
2019-02-14T07:48:36.133Z,8.83
2019-02-14T07:51:04.541Z,7.90
2019-02-14T07:53:33.708Z,8.53
2019-02-14T07:56:02.079Z,9.23
2019-02-14T07:58:30.491Z,8.70
2019-02-14T08:00:58.882Z,9.00
2019-02-14T08:03:27.264Z,9.00
2019-02-14T08:05:55.745Z,9.53
2019-02-14T08:08:25.242Z,9.37
2019-02-14T08:10:53.630Z,9.37
2019-02-14T08:13:22.485Z,9.50
2019-02-14T08:15:50.926Z,10.00
2019-02-14T08:18:19.346Z,10.27
2019-02-14T08:20:47.741Z,9.30
2019-02-14T08:23:16.126Z,10.00
2019-02-14T08:25:44.499Z,9.67
2019-02-14T08:28:12.871Z,10.70
2019-02-14T08:30:41.288Z,10.43
2019-02-14T08:33:09.663Z,11.70
2019-02-14T08:35:38.033Z,10.33
2019-02-14T08:38:08.041Z,10.50
2019-02-14T08:40:36.402Z,11.40
2019-02-14T08:43:04.815Z,11.47
2019-02-14T08:45:33.182Z,11.23
2019-02-14T08:48:01.565Z,11.50
2019-02-14T08:50:32.346Z,11.67
2019-02-14T08:53:00.720Z,11.67
2019-02-14T08:55:29.078Z,11.13
2019-02-14T08:57:57.473Z,12.03
2019-02-14T09:00:25.971Z,12.50
2019-02-14T09:02:54.331Z,13.00
2019-02-14T09:05:22.682Z,13.17
2019-02-14T09:07:54.548Z,12.67
2019-02-14T09:10:20.989Z,13.97
2019-02-14T09:12:49.879Z,13.17
2019-02-14T09:15:18.250Z,13.47
2019-02-14T09:17:46.630Z,13.57
2019-02-14T09:20:17.556Z,13.17
2019-02-14T09:22:45.964Z,12.83
2019-02-14T09:25:14.330Z,11.63
2019-02-14T09:27:42.980Z,12.93
2019-02-14T09:30:12.983Z,13.57
2019-02-14T09:32:41.524Z,12.97
2019-02-14T09:35:10.983Z,13.00
2019-02-14T09:37:39.393Z,13.60
2019-02-14T09:40:13.325Z,13.13
2019-02-14T09:42:41.708Z,12.57
2019-02-14T09:45:14.156Z,13.70
2019-02-14T09:47:42.514Z,12.23
2019-02-14T09:50:12.356Z,12.10
2019-02-14T09:52:41.367Z,12.33
2019-02-14T09:55:11.371Z,11.93
2019-02-14T09:57:39.759Z,12.50
2019-02-14T10:00:11.415Z,11.80
2019-02-14T10:02:40.043Z,11.30
2019-02-14T10:05:09.251Z,11.37
2019-02-14T10:07:37.664Z,12.40
2019-02-14T10:10:09.555Z,11.27
2019-02-14T10:12:37.903Z,11.23
2019-02-14T10:15:08.679Z,11.13
2019-02-14T10:17:37.123Z,11.00
2019-02-14T10:20:13.895Z,11.80
2019-02-14T10:22:42.293Z,12.00
2019-02-14T10:25:11.343Z,12.33
2019-02-14T10:27:39.872Z,12.30
2019-02-14T10:30:20.370Z,10.73
2019-02-14T10:32:48.763Z,11.20
2019-02-14T10:35:17.859Z,10.63
2019-02-14T10:37:46.247Z,10.73
2019-02-14T10:40:15.920Z,11.00
2019-02-14T10:42:44.344Z,11.13
2019-02-14T10:45:15.417Z,11.43
2019-02-14T10:47:43.834Z,10.87
2019-02-14T10:50:12.336Z,10.77
2019-02-14T10:52:42.681Z,10.43
2019-02-14T10:55:14.201Z,10.30
2019-02-14T10:57:42.553Z,11.20
2019-02-14T11:00:25.300Z,10.57
2019-02-14T11:02:53.716Z,10.33
2019-02-14T11:05:24.501Z,9.90
2019-02-14T11:07:54.413Z,10.47
2019-02-14T11:10:24.442Z,9.83
2019-02-14T11:12:56.012Z,10.50
2019-02-14T11:15:25.187Z,10.10
2019-02-14T11:17:53.615Z,10.20
2019-02-14T11:20:23.031Z,10.93
2019-02-14T11:22:52.059Z,10.20
2019-02-14T11:25:23.673Z,9.70
2019-02-14T11:28:00.394Z,9.53
2019-02-14T11:30:28.871Z,9.07
2019-02-14T11:33:03.965Z,8.93
2019-02-14T11:35:32.441Z,9.53
2019-02-14T11:38:01.781Z,8.73
2019-02-14T11:40:30.175Z,9.73
2019-02-14T11:42:59.935Z,8.40
2019-02-14T11:45:29.946Z,8.80
2019-02-14T11:47:58.338Z,9.13
2019-02-14T11:50:27.216Z,9.53
2019-02-14T11:52:55.642Z,9.47
2019-02-14T11:55:24.118Z,9.93
2019-02-14T11:57:52.681Z,9.23
2019-02-14T12:00:28.601Z,9.43
2019-02-14T12:02:57.286Z,10.00
2019-02-14T12:05:25.713Z,9.57
2019-02-14T12:07:54.109Z,9.33
2019-02-14T12:10:22.484Z,9.73
2019-02-14T12:12:52.757Z,9.83
2019-02-14T12:15:23.894Z,9.93
2019-02-14T12:17:51.958Z,9.43
2019-02-14T12:20:20.775Z,9.23
2019-02-14T12:22:49.166Z,8.93
2019-02-14T12:25:26.262Z,9.77
2019-02-14T12:27:54.663Z,8.73
2019-02-14T12:30:25.319Z,8.80
2019-02-14T12:32:54.161Z,9.27
2019-02-14T12:35:22.757Z,9.63
2019-02-14T12:37:52.126Z,9.40
2019-02-14T12:40:22.185Z,9.60
2019-02-14T12:42:53.515Z,9.07
2019-02-14T12:45:26.025Z,8.57
2019-02-14T12:47:55.859Z,8.63
2019-02-14T12:50:25.438Z,9.20
2019-02-14T12:52:56.315Z,9.30
2019-02-14T12:55:24.768Z,9.10
2019-02-14T12:57:53.155Z,9.47
2019-02-14T13:00:23.120Z,9.33
2019-02-14T13:02:52.062Z,8.17
2019-02-14T13:05:20.503Z,9.83
2019-02-14T13:07:48.864Z,9.60
2019-02-14T13:10:18.371Z,10.20
2019-02-14T13:12:47.884Z,10.10
2019-02-14T13:15:21.689Z,9.73
2019-02-14T13:17:50.937Z,8.57
2019-02-14T13:20:19.320Z,9.83
2019-02-14T13:22:47.760Z,9.00
2019-02-14T13:25:16.231Z,9.10
2019-02-14T13:27:44.729Z,8.10
2019-02-14T13:30:18.876Z,8.70
2019-02-14T13:32:47.274Z,8.53
2019-02-14T13:35:15.727Z,8.73
2019-02-14T13:37:47.174Z,8.67
2019-02-14T13:40:15.549Z,8.33
2019-02-14T13:42:44.388Z,8.10
2019-02-14T13:45:15.441Z,11.67
2019-02-14T13:47:44.404Z,8.13
2019-02-14T13:50:16.146Z,7.43
2019-02-14T13:52:49.579Z,7.70
2019-02-14T13:55:17.924Z,7.70
2019-02-14T13:57:46.460Z,7.57
2019-02-14T14:00:20.674Z,7.93
2019-02-14T14:02:52.435Z,7.30
2019-02-14T14:05:20.914Z,7.90
2019-02-14T14:07:49.292Z,7.63
2019-02-14T14:10:17.788Z,6.67
2019-02-14T14:12:46.176Z,7.00
2019-02-14T14:15:14.540Z,7.73
2019-02-14T14:17:42.934Z,7.70
2019-02-14T14:20:13.162Z,7.87
2019-02-14T14:22:42.162Z,7.27
2019-02-14T14:25:13.251Z,7.80
2019-02-14T14:27:45.722Z,8.27
2019-02-14T14:30:14.438Z,7.80
2019-02-14T14:32:42.872Z,8.70
2019-02-14T14:35:11.533Z,8.00
2019-02-14T14:37:40.021Z,8.20
2019-02-14T14:40:20.298Z,8.13
2019-02-14T14:42:52.338Z,8.13
2019-02-14T14:45:40.218Z,8.23
2019-02-14T14:48:18.997Z,9.10
2019-02-14T14:50:43.340Z,8.03
2019-02-14T14:53:11.744Z,7.70
2019-02-14T14:55:40.130Z,7.90
2019-02-14T14:58:11.511Z,8.73
2019-02-14T15:00:41.264Z,8.40
2019-02-14T15:03:09.715Z,7.70
2019-02-14T15:05:39.187Z,8.63
2019-02-14T15:08:07.656Z,9.07
2019-02-14T15:10:36.175Z,8.93
2019-02-14T15:13:05.051Z,8.57
2019-02-14T15:15:33.427Z,9.63
2019-02-14T15:18:02.976Z,9.03
2019-02-14T15:20:31.349Z,9.10
2019-02-14T15:23:01.314Z,9.10
2019-02-14T15:25:29.818Z,10.33
2019-02-14T15:27:58.190Z,10.13
2019-02-14T15:30:26.621Z,9.77
2019-02-14T15:32:55.023Z,10.30
2019-02-14T15:35:23.393Z,10.57
2019-02-14T15:37:52.912Z,10.40
2019-02-14T15:40:21.315Z,10.23
2019-02-14T15:42:49.757Z,9.70
2019-02-14T15:45:18.232Z,10.60
2019-02-14T15:47:49.542Z,10.50
2019-02-14T15:50:18.192Z,10.30
2019-02-14T15:52:46.587Z,10.70
2019-02-14T15:55:14.980Z,10.37
2019-02-14T15:57:44.777Z,10.47
2019-02-14T16:00:13.978Z,10.60
2019-02-14T16:02:43.543Z,10.53
2019-02-14T16:05:11.949Z,11.03
2019-02-14T16:07:41.467Z,10.43
2019-02-14T16:10:18.249Z,11.13
2019-02-14T16:12:41.794Z,14.30
2019-02-14T16:15:11.123Z,15.27
2019-02-14T16:17:39.506Z,11.87
2019-02-14T16:20:08.644Z,12.00
2019-02-14T16:22:37.042Z,11.77
2019-02-14T16:25:08.256Z,12.43
2019-02-14T16:27:36.719Z,12.03
2019-02-14T16:30:09.349Z,12.00
2019-02-14T16:32:37.993Z,12.77
2019-02-14T16:35:07.388Z,11.77
2019-02-14T16:37:35.797Z,13.03
2019-02-14T16:40:07.118Z,12.83
2019-02-14T16:42:38.037Z,13.30
2019-02-14T16:45:07.923Z,13.07
2019-02-14T16:47:36.301Z,13.33
2019-02-14T16:50:07.090Z,14.77
2019-02-14T16:52:35.483Z,15.97
2019-02-14T16:55:04.235Z,13.50
2019-02-14T16:57:32.603Z,13.80
2019-02-14T17:00:04.347Z,13.20
2019-02-14T17:02:32.767Z,13.80
2019-02-14T17:05:01.198Z,14.33
2019-02-14T17:07:29.583Z,13.70
2019-02-14T17:09:57.955Z,14.37
2019-02-14T17:12:26.439Z,14.47
2019-02-14T17:14:54.836Z,14.27
2019-02-14T17:17:27.831Z,15.10
2019-02-14T17:19:53.253Z,15.87
2019-02-14T17:22:21.623Z,16.03
2019-02-14T17:24:50.010Z,16.23
2019-02-14T17:27:18.407Z,17.20
2019-02-14T17:29:48.289Z,17.33
2019-02-14T17:32:18.159Z,19.00
2019-02-14T17:34:46.535Z,18.07
2019-02-14T17:37:14.924Z,18.90
2019-02-14T17:39:43.353Z,19.63
2019-02-14T17:42:11.715Z,19.63
2019-02-14T17:44:40.211Z,20.33
2019-02-14T17:47:08.648Z,20.00
2019-02-14T17:49:39.514Z,19.57
2019-02-14T17:52:07.987Z,19.37
2019-02-14T17:54:36.390Z,18.93
2019-02-14T17:57:04.779Z,20.03
2019-02-14T17:59:34.815Z,21.10
2019-02-14T18:02:03.403Z,21.60
2019-02-14T18:04:33.496Z,20.00
2019-02-14T18:07:02.054Z,20.73
2019-02-14T18:09:30.499Z,21.80
2019-02-14T18:11:58.874Z,21.97
2019-02-14T18:14:27.263Z,20.97
2019-02-14T18:16:56.316Z,22.27
2019-02-14T18:19:24.723Z,21.83
2019-02-14T18:21:53.096Z,23.03
2019-02-14T18:24:21.524Z,22.70
2019-02-14T18:26:49.924Z,22.23
2019-02-14T18:29:18.402Z,23.07
2019-02-14T18:31:46.792Z,22.90
2019-02-14T18:34:15.187Z,22.63
2019-02-14T18:36:43.589Z,23.53
2019-02-14T18:39:11.973Z,24.07
2019-02-14T18:41:40.384Z,23.50
2019-02-14T18:44:08.831Z,24.53
2019-02-14T18:46:37.217Z,23.43
2019-02-14T18:49:05.659Z,23.90
2019-02-14T18:51:34.039Z,24.23
2019-02-14T18:54:02.497Z,24.60
2019-02-14T18:56:31.116Z,23.97
2019-02-14T18:58:59.500Z,25.70
2019-02-14T19:01:27.935Z,25.53
2019-02-14T19:03:56.635Z,24.83
2019-02-14T19:06:25.012Z,26.13
2019-02-14T19:08:53.433Z,27.97
2019-02-14T19:11:21.868Z,28.87
2019-02-14T19:13:50.281Z,28.70
2019-02-14T19:16:18.659Z,30.37
2019-02-14T19:18:47.139Z,28.87
2019-02-14T19:21:15.524Z,29.30
2019-02-14T19:23:43.895Z,29.73
2019-02-14T19:26:12.311Z,30.83
2019-02-14T19:28:41.989Z,31.77
2019-02-14T19:31:13.033Z,30.97
2019-02-14T19:33:41.776Z,29.77
2019-02-14T19:36:10.172Z,31.37
2019-02-14T19:38:40.711Z,31.10
2019-02-14T19:41:10.355Z,30.47
2019-02-14T19:43:38.746Z,30.90
2019-02-14T19:46:07.146Z,29.63
2019-02-14T19:48:38.714Z,29.50
2019-02-14T19:51:07.604Z,27.90
2019-02-14T19:53:35.991Z,26.07
2019-02-14T19:56:09.143Z,27.70
2019-02-14T19:58:38.025Z,25.60
2019-02-14T20:01:06.462Z,26.37
2019-02-14T20:03:34.843Z,26.40
2019-02-14T20:06:03.223Z,28.20
2019-02-14T20:08:32.070Z,27.63
2019-02-14T20:11:00.451Z,27.57
2019-02-14T20:13:29.470Z,27.03
2019-02-14T20:15:57.888Z,30.27
2019-02-14T20:18:26.268Z,29.57
2019-02-14T20:20:54.648Z,28.50
2019-02-14T20:23:23.062Z,30.40
2019-02-14T20:25:51.444Z,30.47
2019-02-14T20:28:19.820Z,28.90
2019-02-14T20:30:50.463Z,29.97
2019-02-14T20:33:18.846Z,29.23
2019-02-14T20:35:47.294Z,28.07
2019-02-14T20:38:20.877Z,27.33
2019-02-14T20:40:52.762Z,27.23
2019-02-14T20:43:21.651Z,26.73
2019-02-14T20:45:51.097Z,26.83
2019-02-14T20:48:23.566Z,24.23
2019-02-14T20:50:51.940Z,26.03
2019-02-14T20:53:20.344Z,25.63
2019-02-14T20:55:48.835Z,26.67
2019-02-14T20:58:17.314Z,26.70
2019-02-14T21:00:47.311Z,26.50
2019-02-14T21:03:15.712Z,26.57
2019-02-14T21:05:44.078Z,25.97
2019-02-14T21:08:12.491Z,26.83
2019-02-14T21:10:40.917Z,27.90
2019-02-14T21:13:10.342Z,28.10
2019-02-14T21:15:42.032Z,27.20
2019-02-14T21:18:10.402Z,27.77
2019-02-14T21:20:38.789Z,25.73
2019-02-14T21:23:07.214Z,26.73
2019-02-14T21:25:37.171Z,26.43
2019-02-14T21:28:06.131Z,27.40
2019-02-14T21:30:35.837Z,26.77
2019-02-14T21:33:04.796Z,25.77
2019-02-14T21:35:33.387Z,24.73
2019-02-14T21:38:01.889Z,25.63
2019-02-14T21:40:30.442Z,31.53
2019-02-14T21:42:58.801Z,25.70
2019-02-14T21:45:27.190Z,26.07
2019-02-14T21:47:55.710Z,26.00
2019-02-14T21:50:24.101Z,24.83
2019-02-14T21:52:52.483Z,25.83
2019-02-14T21:55:20.947Z,24.37
2019-02-14T21:57:49.394Z,23.20
2019-02-14T22:00:24.021Z,23.73
2019-02-14T22:02:54.053Z,24.67
2019-02-14T22:05:26.130Z,24.30
2019-02-14T22:07:54.648Z,23.83
2019-02-14T22:10:23.114Z,24.77
2019-02-14T22:12:51.580Z,24.37
2019-02-14T22:15:28.608Z,23.77
2019-02-14T22:17:57.320Z,24.20
2019-02-14T22:20:25.851Z,24.13
2019-02-14T22:22:55.164Z,23.90
2019-02-14T22:25:23.664Z,23.87
2019-02-14T22:27:52.111Z,23.20
2019-02-14T22:30:20.522Z,23.17
2019-02-14T22:32:48.933Z,23.83
2019-02-14T22:35:19.522Z,23.67
2019-02-14T22:37:48.935Z,23.30
2019-02-14T22:40:17.456Z,22.37
2019-02-14T22:42:47.643Z,21.20
2019-02-14T22:45:16.294Z,19.77
2019-02-14T22:47:44.923Z,19.13
2019-02-14T22:50:13.713Z,19.07
2019-02-14T22:52:42.139Z,20.23
2019-02-14T22:55:14.023Z,20.60
2019-02-14T22:57:42.426Z,21.83
2019-02-14T23:00:17.981Z,21.57
2019-02-14T23:02:46.387Z,22.97
2019-02-14T23:05:14.786Z,23.57
2019-02-14T23:07:43.205Z,23.67
2019-02-14T23:10:12.330Z,23.87
2019-02-14T23:12:42.349Z,25.37
2019-02-14T23:15:10.762Z,24.80
2019-02-14T23:17:39.211Z,26.10
2019-02-14T23:20:09.221Z,24.93
2019-02-14T23:22:37.626Z,27.80
2019-02-14T23:25:06.189Z,27.77
2019-02-14T23:27:34.977Z,28.20
2019-02-14T23:30:04.572Z,27.83
2019-02-14T23:32:32.974Z,28.27
2019-02-14T23:35:01.583Z,28.33
2019-02-14T23:37:29.967Z,28.20
2019-02-14T23:39:58.819Z,29.83
2019-02-14T23:42:27.251Z,28.10
2019-02-14T23:44:55.637Z,30.10
2019-02-14T23:47:24.034Z,30.80
2019-02-14T23:49:52.781Z,32.23
2019-02-14T23:52:21.236Z,33.13
2019-02-14T23:54:50.233Z,32.57
2019-02-14T23:57:19.119Z,34.37
2019-02-14T23:59:47.513Z,37.27
